»·PEaware :: N401TS KPHX-KSAN

N401TS :: KPHX-KSAN

FLIGHT INFORMATION

Flight Status: Arrived
Operator: Privately registered:
United States
More flights under this callsign
Pilot: Ian S. (13252)
Aircraft: Unknown
(EPIC)
More flights by this aircraft type
Origin: KPHX Phoenix Sky Harbor Intl
United States
Destination: KSAN San Diego Intl-Lindbergh
United States
More flights between these airports :: More routes between these airports
Route: +JUDTH6 MOHAK J2 MZB
File this flight plan on PilotEdge
Remarks:
Altitude:
(Current/Filed)
22,000ft
Speed:
(Current/Filed)
290kts
Departed: 24-Nov-17 07:04 PM
Arrived: 24-Nov-17 08:06 PM
Distance/Time
Traveled:
264nm/1:01
Distance/Time
To Go:
Arrived

Flight Plot

Page will automatically refresh every two minutes.

Flight plan parsing failed; only flown route is shown


Map Options




Map Legend


Flown Route
Filed Route
Departure Airport
Arrival Airport
Navaid (VOR, NDB)
Fix

Horizontal Profiles

Position Reports

Time Latitude Longitude Heading Altitude Ground
Speed
24-Nov-17 18:51 33.425270 -112.020544 86 1113ft 0kts
24-Nov-17 18:52 33.425270 -112.020544 86 1113ft 0kts
24-Nov-17 18:53 33.425270 -112.020544 86 1113ft 0kts
24-Nov-17 18:54 33.425270 -112.020544 86 1113ft 0kts
24-Nov-17 18:55 33.425270 -112.020544 86 1113ft 0kts
24-Nov-17 18:56 33.425270 -112.020544 86 1113ft 0kts
24-Nov-17 18:57 33.425270 -112.020544 86 1113ft 0kts
24-Nov-17 18:58 33.425270 -112.020544 86 1113ft 0kts
24-Nov-17 18:59 33.425270 -112.020544 86 1113ft 0kts
24-Nov-17 19:00 33.425270 -112.020544 86 1113ft 0kts
24-Nov-17 19:01 33.425270 -112.020544 86 1113ft 0kts
24-Nov-17 19:02 33.425270 -112.020544 86 1113ft 0kts
24-Nov-17 19:03 33.425270 -112.020544 86 1113ft 0kts
24-Nov-17 19:04 33.425270 -112.020544 86 1113ft 0kts
24-Nov-17 19:05 33.425270 -112.020544 86 1113ft 0kts
24-Nov-17 19:06 33.427736 -112.020844 70 1113ft 17kts
24-Nov-17 19:07 33.427762 -112.012178 89 1116ft 30kts
24-Nov-17 19:08 33.427847 -112.005416 47 1116ft 1kts
24-Nov-17 19:09 33.428676 -112.023516 269 1328ft 152kts
24-Nov-17 19:10 33.412529 -112.077297 230 3555ft 211kts
24-Nov-17 19:11 33.371942 -112.133963 230 5631ft 237kts
24-Nov-17 19:12 33.326944 -112.197039 230 7671ft 268kts
24-Nov-17 19:13 33.279943 -112.262002 230 10069ft 250kts
24-Nov-17 19:14 33.235109 -112.320485 231 12544ft 232kts
24-Nov-17 19:15 33.193323 -112.373708 232 15010ft 212kts
24-Nov-17 19:16 33.154560 -112.423017 234 17129ft 213kts
24-Nov-17 19:17 33.111609 -112.477729 233 18643ft 236kts
24-Nov-17 19:18 33.066078 -112.535447 233 20131ft 243kts
24-Nov-17 19:19 33.019969 -112.594064 231 21288ft 247kts
24-Nov-17 19:20 32.973207 -112.652947 231 21960ft 256kts
24-Nov-17 19:21 32.949699 -112.732791 259 21969ft 269kts
24-Nov-17 19:22 32.936735 -112.821202 260 21991ft 275kts
24-Nov-17 19:23 32.924343 -112.911604 260 22075ft 282kts
24-Nov-17 19:24 32.911831 -113.003485 260 22074ft 283kts
24-Nov-17 19:25 32.899302 -113.095094 260 22074ft 284kts
24-Nov-17 19:26 32.886650 -113.187115 260 22073ft 284kts
24-Nov-17 19:27 32.873883 -113.279437 260 22072ft 284kts
24-Nov-17 19:28 32.861085 -113.371511 260 22072ft 283kts
24-Nov-17 19:29 32.847802 -113.466643 261 22076ft 302kts
24-Nov-17 19:30 32.833814 -113.566016 261 22070ft 307kts
24-Nov-17 19:31 32.819719 -113.665586 260 22001ft 310kts
24-Nov-17 19:32 32.805424 -113.766075 260 22000ft 310kts
24-Nov-17 19:33 32.791004 -113.866774 260 21996ft 310kts
24-Nov-17 19:34 32.776966 -113.967014 266 21984ft 310kts
24-Nov-17 19:35 32.774982 -114.069019 268 21994ft 309kts
24-Nov-17 19:36 32.773765 -114.170998 268 21995ft 311kts
24-Nov-17 19:37 32.772541 -114.273048 268 21992ft 310kts
24-Nov-17 19:38 32.771257 -114.374908 268 21991ft 309kts
24-Nov-17 19:39 32.769897 -114.476604 268 21990ft 309kts
24-Nov-17 19:40 32.768453 -114.578482 268 21989ft 309kts
24-Nov-17 19:41 32.766710 -114.679551 267 21943ft 310kts
24-Nov-17 19:42 32.764826 -114.781326 267 21942ft 311kts
24-Nov-17 19:43 32.762784 -114.883649 268 21938ft 312kts
24-Nov-17 19:44 32.760769 -114.986115 267 21940ft 312kts
24-Nov-17 19:45 32.758589 -115.089080 267 21886ft 312kts
24-Nov-17 19:46 32.756343 -115.191445 267 21885ft 312kts
24-Nov-17 19:47 32.754615 -115.267696 267 21884ft 312kts
24-Nov-17 19:48 32.752216 -115.370374 267 21883ft 312kts
24-Nov-17 19:49 32.749740 -115.472786 267 21909ft 311kts
24-Nov-17 19:50 32.750665 -115.575314 271 21908ft 311kts
24-Nov-17 19:51 32.753082 -115.675548 271 21941ft 312kts
24-Nov-17 19:52 32.755650 -115.778234 270 21645ft 317kts
24-Nov-17 19:53 32.758153 -115.884447 270 20166ft 327kts
24-Nov-17 19:54 32.760598 -115.991395 271 19055ft 323kts
24-Nov-17 19:55 32.762911 -116.096443 271 17779ft 314kts
24-Nov-17 19:56 32.764690 -116.179965 271 16523ft 301kts
24-Nov-17 19:57 32.767029 -116.294279 271 14768ft 297kts
24-Nov-17 19:58 32.768950 -116.392143 271 13263ft 299kts
24-Nov-17 19:59 32.770458 -116.471993 271 13022ft 294kts
24-Nov-17 20:00 32.772257 -116.570865 271 13018ft 298kts
24-Nov-17 20:01 32.774165 -116.681942 270 10993ft 286kts
24-Nov-17 20:02 32.758533 -116.768751 214 8478ft 289kts
24-Nov-17 20:03 32.700452 -116.797556 237 6372ft 272kts
24-Nov-17 20:04 32.675827 -116.878005 253 4066ft 251kts
24-Nov-17 20:05 32.672121 -116.945558 290 3994ft 175kts
24-Nov-17 20:06 32.685648 -116.993916 286 3610ft 155kts
24-Nov-17 20:07 32.701634 -117.058298 286 2049ft 187kts
24-Nov-17 20:08 32.711939 -117.100648 286 1374ft 128kts
24-Nov-17 20:09 32.721106 -117.137758 286 650ft 112kts
24-Nov-17 20:10 32.728903 -117.170398 286 242ft 104kts
24-Nov-17 20:11 32.734051 -117.188059 40 17ft 12kts

Navigation Log

Ident Type
Flight plan parsing failed, navigation log unavailable